Time;durP1;ratioP1;P1;durP2;ratioP2;P2;SDS_P1;SDS_P2;PMS_P1;PMS_P2;Temp;Humidity;BMP_temperature;BMP_pressure;BME280_temperature;BME280_humidity;BME280_pressure;Samples;Min_cycle;Max_cycle;Signal;HPM_P1;HPM_P2
2023/12/22 00:01:30;;;;;;;9.82;9.20;;;5.20;99.90;;;;;;5016822;28;20049;-82
2023/12/22 00:03:56;;;;;;;12.15;11.05;;;4.80;99.90;;;;;;5033726;28;20540;-82
2023/12/22 00:06:21;;;;;;;11.07;10.23;;;3.90;99.90;;;;;;5033597;28;20033;-82
2023/12/22 00:08:47;;;;;;;12.48;11.38;;;4.60;99.90;;;;;;5033506;28;20040;-83
2023/12/22 00:11:13;;;;;;;10.90;9.98;;;4.40;99.90;;;;;;5000289;28;20049;-84
2023/12/22 00:13:38;;;;;;;10.00;9.27;;;4.20;99.90;;;;;;5033008;28;20064;-82
2023/12/22 00:16:04;;;;;;;12.57;9.35;;;4.90;99.90;;;;;;5016358;28;20520;-83
2023/12/22 00:18:30;;;;;;;11.82;8.02;;;4.00;99.90;;;;;;5017019;28;20464;-82
2023/12/22 00:20:56;;;;;;;11.27;10.20;;;4.10;99.90;;;;;;5000566;28;20053;-83
2023/12/22 00:23:22;;;;;;;10.48;9.48;;;4.50;99.90;;;;;;5017124;28;20099;-83
2023/12/22 00:25:47;;;;;;;10.05;9.25;;;4.80;99.90;;;;;;5000962;28;20042;-83
2023/12/22 00:28:13;;;;;;;9.23;8.35;;;4.30;99.90;;;;;;5016901;28;20045;-84
2023/12/22 00:30:39;;;;;;;9.50;8.63;;;4.40;99.90;;;;;;5016044;28;20124;-83
2023/12/22 00:33:04;;;;;;;10.02;7.05;;;4.50;99.90;;;;;;5016074;28;20487;-83
2023/12/22 00:35:30;;;;;;;11.40;6.45;;;5.40;99.90;;;;;;5016781;28;20064;-83
2023/12/22 00:37:56;;;;;;;11.35;6.53;;;4.50;99.90;;;;;;5015421;28;20052;-84
2023/12/22 00:40:22;;;;;;;8.70;5.65;;;5.30;99.90;;;;;;5015813;28;20045;-84
2023/12/22 00:42:47;;;;;;;7.22;5.55;;;4.60;99.90;;;;;;4999847;28;20045;-83
2023/12/22 00:45:13;;;;;;;7.75;5.95;;;4.60;99.90;;;;;;5032811;28;20470;-85
2023/12/22 00:47:39;;;;;;;8.82;5.53;;;4.70;99.90;;;;;;4999991;28;20553;-86
2023/12/22 00:50:05;;;;;;;8.15;6.85;;;4.70;99.90;;;;;;5032770;28;20090;-83
2023/12/22 00:52:31;;;;;;;8.02;5.63;;;4.70;99.90;;;;;;5000857;28;20520;-84
2023/12/22 00:54:57;;;;;;;25.95;6.22;;;4.80;99.90;;;;;;5016213;28;20041;-84
2023/12/22 00:57:23;;;;;;;6.32;5.00;;;5.20;99.90;;;;;;5015956;28;20528;-84
2023/12/22 00:59:48;;;;;;;12.93;6.70;;;5.00;99.90;;;;;;5015348;28;20037;-84
2023/12/22 01:02:15;;;;;;;13.30;7.75;;;4.90;99.90;;;;;;5032019;28;20083;-83
2023/12/22 01:04:41;;;;;;;13.32;8.90;;;5.10;99.90;;;;;;5032570;28;20037;-85
2023/12/22 01:07:10;;;;;;;9.23;8.48;;;4.90;99.90;;;;;;5000056;28;20045;-83
2023/12/22 01:09:37;;;;;;;11.43;10.50;;;4.70;99.90;;;;;;5015663;28;20417;-83
2023/12/22 01:12:04;;;;;;;10.75;9.95;;;4.50;99.90;;;;;;5016231;28;20136;-82
2023/12/22 01:14:30;;;;;;;10.38;9.40;;;4.30;99.90;;;;;;5015717;28;20095;-83
2023/12/22 01:16:56;;;;;;;12.40;11.30;;;4.40;99.90;;;;;;5015963;28;20057;-83
2023/12/22 01:19:22;;;;;;;12.23;11.15;;;4.20;99.90;;;;;;5015952;28;20045;-82
2023/12/22 01:21:49;;;;;;;11.90;10.93;;;4.20;99.90;;;;;;5016030;28;20437;-83
2023/12/22 01:24:15;;;;;;;12.93;12.00;;;4.60;99.90;;;;;;5016339;28;20076;-84
2023/12/22 01:26:40;;;;;;;12.88;11.82;;;5.20;99.90;;;;;;4983314;28;20150;-84
2023/12/22 01:29:06;;;;;;;15.93;14.63;;;4.20;99.90;;;;;;5032020;28;20111;-83
2023/12/22 01:31:32;;;;;;;14.65;13.13;;;4.20;99.90;;;;;;4999492;28;20128;-83
2023/12/22 01:33:57;;;;;;;13.82;12.77;;;4.20;99.90;;;;;;5015590;28;20108;-85
2023/12/22 01:36:23;;;;;;;12.18;11.38;;;4.20;99.90;;;;;;5015450;28;20107;-83
2023/12/22 01:38:49;;;;;;;14.43;10.80;;;4.20;99.90;;;;;;5031916;28;20096;-85
2023/12/22 01:41:14;;;;;;;9.52;8.43;;;4.20;99.90;;;;;;4998973;28;20060;-85
2023/12/22 01:43:40;;;;;;;9.00;8.30;;;4.30;99.90;;;;;;4982828;28;20132;-83
2023/12/22 01:46:07;;;;;;;7.13;6.43;;;5.10;99.90;;;;;;4998418;28;20115;-82
2023/12/22 01:48:34;;;;;;;6.97;6.50;;;4.50;99.90;;;;;;5014587;28;20146;-82
2023/12/22 01:51:02;;;;;;;14.68;6.93;;;4.50;99.90;;;;;;5015014;28;20053;-83
2023/12/22 01:53:28;;;;;;;6.40;5.82;;;4.50;99.90;;;;;;5014942;28;20049;-83
2023/12/22 01:55:55;;;;;;;5.43;5.03;;;4.80;99.90;;;;;;5031469;28;20127;-84
2023/12/22 01:58:23;;;;;;;10.88;4.70;;;4.40;99.90;;;;;;4999001;28;20038;-83
2023/12/22 02:00:49;;;;;;;8.45;5.57;;;5.10;99.90;;;;;;5014946;28;20048;-84
2023/12/22 02:03:16;;;;;;;4.28;3.97;;;5.10;99.90;;;;;;4995525;28;20049;-82
2023/12/22 02:05:43;;;;;;;9.20;4.68;;;4.60;99.90;;;;;;5031461;28;20053;-83
2023/12/22 02:08:09;;;;;;;3.55;3.25;;;4.70;99.90;;;;;;5031433;28;20046;-83
2023/12/22 02:10:36;;;;;;;5.65;3.53;;;4.70;99.90;;;;;;5014977;28;20079;-83
2023/12/22 02:13:03;;;;;;;8.60;4.72;;;4.70;99.90;;;;;;5014870;28;20041;-82
2023/12/22 02:15:28;;;;;;;6.05;4.90;;;4.80;99.90;;;;;;4998237;28;20524;-83
2023/12/22 02:18:16;;;;;;;7.13;3.88;;;4.70;99.90;;;;;;5031810;28;20049;-82
2023/12/22 02:20:44;;;;;;;6.53;4.22;;;4.70;99.90;;;;;;5030861;28;20042;-83
2023/12/22 02:23:09;;;;;;;5.57;4.30;;;4.80;99.90;;;;;;4999056;28;20095;-85
2023/12/22 02:25:35;;;;;;;5.70;4.70;;;5.10;99.90;;;;;;5013526;28;20640;-82
2023/12/22 02:28:08;;;;;;;8.88;4.40;;;5.20;99.90;;;;;;5031055;28;20421;-83
2023/12/22 02:30:57;;;;;;;6.07;3.65;;;4.70;99.90;;;;;;5015042;28;20045;-82
2023/12/22 02:33:26;;;;;;;6.10;3.40;;;4.80;99.90;;;;;;5014869;28;20127;-84
2023/12/22 02:35:57;;;;;;;4.63;4.20;;;5.00;99.90;;;;;;5014132;28;20136;-84
2023/12/22 02:38:25;;;;;;;8.82;4.22;;;4.90;99.90;;;;;;5014765;28;20472;-83
2023/12/22 02:40:51;;;;;;;12.02;7.53;;;4.90;99.90;;;;;;5014665;28;20063;-82
2023/12/22 02:43:17;;;;;;;10.35;8.13;;;5.10;99.90;;;;;;4998116;28;20497;-82
2023/12/22 02:45:43;;;;;;;16.00;9.20;;;4.90;99.90;;;;;;4998420;28;20099;-82
2023/12/22 02:48:08;;;;;;;12.93;9.27;;;4.60;99.90;;;;;;4998623;28;20405;-83
2023/12/22 02:50:34;;;;;;;11.55;10.07;;;5.30;99.90;;;;;;4982030;28;20398;-83
2023/12/22 02:53:00;;;;;;;10.50;9.63;;;4.60;99.90;;;;;;5029956;28;20135;-84
2023/12/22 02:55:25;;;;;;;10.88;10.07;;;4.30;99.90;;;;;;4998403;28;20052;-83
2023/12/22 02:57:51;;;;;;;13.13;11.70;;;5.20;99.90;;;;;;4982595;28;20124;-82
2023/12/22 03:00:16;;;;;;;15.75;11.30;;;4.20;99.90;;;;;;4999496;28;20045;-84
2023/12/22 03:02:42;;;;;;;12.00;11.40;;;4.10;99.90;;;;;;5002177;28;20052;-84
2023/12/22 03:05:08;;;;;;;12.50;11.20;;;4.10;99.90;;;;;;5035178;28;20046;-83
2023/12/22 03:07:33;;;;;;;12.75;10.32;;;4.00;99.90;;;;;;5018129;28;20045;-84
2023/12/22 03:09:59;;;;;;;10.90;8.55;;;3.90;99.90;;;;;;5002613;28;20046;-83
2023/12/22 03:12:25;;;;;;;10.98;9.43;;;4.30;99.90;;;;;;5002440;28;20037;-84
2023/12/22 03:14:50;;;;;;;9.25;8.30;;;4.10;99.90;;;;;;5002148;28;20045;-83
2023/12/22 03:17:16;;;;;;;7.85;6.05;;;4.10;99.90;;;;;;5018879;28;20401;-83
2023/12/22 03:19:42;;;;;;;8.43;5.93;;;4.30;99.90;;;;;;5018347;28;20492;-83
2023/12/22 03:22:07;;;;;;;7.78;5.85;;;4.40;99.90;;;;;;5018021;28;20049;-83
2023/12/22 03:24:33;;;;;;;6.22;5.78;;;4.60;99.90;;;;;;5034838;28;20048;-83
2023/12/22 03:26:59;;;;;;;7.38;4.45;;;4.60;99.90;;;;;;5018029;28;20045;-84
2023/12/22 03:29:24;;;;;;;4.10;3.70;;;5.40;99.90;;;;;;5001631;28;20038;-83
2023/12/22 03:31:50;;;;;;;5.53;5.13;;;4.90;99.90;;;;;;5001555;28;20055;-83
2023/12/22 03:34:16;;;;;;;4.90;4.25;;;5.00;99.90;;;;;;5001971;28;20417;-83
2023/12/22 03:36:41;;;;;;;5.10;4.78;;;5.00;99.90;;;;;;5018101;28;20080;-83
2023/12/22 03:39:07;;;;;;;4.28;3.88;;;5.10;99.90;;;;;;4983768;28;20056;-83
2023/12/22 03:41:34;;;;;;;4.15;3.60;;;5.20;99.90;;;;;;5016909;28;20057;-84
2023/12/22 03:43:59;;;;;;;4.78;3.60;;;5.30;99.90;;;;;;5034267;28;20046;-85
2023/12/22 03:46:25;;;;;;;3.78;3.40;;;5.30;99.90;;;;;;5017357;28;20355;-85
2023/12/22 03:48:51;;;;;;;4.75;3.40;;;5.30;99.90;;;;;;5017177;28;20367;-85
2023/12/22 03:51:17;;;;;;;5.88;3.38;;;5.90;99.90;;;;;;5017456;28;20045;-85
2023/12/22 03:53:42;;;;;;;4.68;3.05;;;5.20;99.90;;;;;;5034393;28;20493;-83
2023/12/22 03:56:09;;;;;;;6.13;3.80;;;5.10;99.90;;;;;;5017918;28;20084;-84
2023/12/22 03:58:35;;;;;;;6.07;4.00;;;5.50;99.90;;;;;;5017647;28;20099;-83
2023/12/22 04:01:01;;;;;;;8.80;6.10;;;5.50;99.90;;;;;;5034185;28;20049;-83
2023/12/22 04:03:26;;;;;;;7.05;6.53;;;5.20;99.90;;;;;;5033751;28;20393;-85
2023/12/22 04:05:52;;;;;;;8.55;7.95;;;5.10;99.90;;;;;;5034237;28;20393;-84
2023/12/22 04:08:19;;;;;;;8.75;8.23;;;5.00;99.90;;;;;;5017121;28;20034;-86
2023/12/22 04:10:45;;;;;;;9.07;8.55;;;4.70;99.90;;;;;;5001566;28;20056;-85
2023/12/22 04:13:11;;;;;;;9.02;8.43;;;4.30;99.90;;;;;;4999875;28;20053;-86
2023/12/22 04:15:37;;;;;;;11.38;10.40;;;5.00;99.90;;;;;;5017354;28;20085;-85
2023/12/22 04:18:02;;;;;;;10.10;9.50;;;5.00;99.90;;;;;;5017536;28;20052;-83
2023/12/22 04:20:28;;;;;;;11.25;10.73;;;3.80;99.90;;;;;;4984494;28;20092;-84
2023/12/22 04:22:54;;;;;;;12.63;11.93;;;4.30;99.90;;;;;;5001130;28;20504;-84
2023/12/22 04:25:19;;;;;;;12.85;12.35;;;4.60;99.90;;;;;;5033619;28;20364;-84
2023/12/22 04:27:45;;;;;;;13.93;12.57;;;4.90;99.90;;;;;;5014955;28;20049;-85
2023/12/22 04:30:11;;;;;;;12.95;11.77;;;4.80;99.90;;;;;;5015282;28;20049;-84
2023/12/22 04:32:37;;;;;;;13.52;12.68;;;3.80;99.90;;;;;;4996459;28;20474;-85
2023/12/22 04:35:03;;;;;;;13.93;13.02;;;4.40;99.90;;;;;;5014839;28;20042;-86
2023/12/22 04:37:29;;;;;;;13.13;12.07;;;3.90;99.90;;;;;;5033345;28;20033;-88
2023/12/22 04:39:54;;;;;;;12.85;11.45;;;4.00;99.90;;;;;;5033451;28;20054;-86
2023/12/22 04:42:20;;;;;;;13.90;12.50;;;4.60;99.90;;;;;;4983907;28;20033;-85
2023/12/22 04:44:46;;;;;;;13.23;12.32;;;4.10;99.90;;;;;;5000323;28;20060;-84
2023/12/22 04:47:12;;;;;;;12.05;10.57;;;4.40;99.90;;;;;;4984256;28;20486;-82
2023/12/22 04:49:38;;;;;;;11.27;10.57;;;4.70;99.90;;;;;;5021789;28;20134;-86
2023/12/22 04:52:04;;;;;;;10.82;9.65;;;4.80;99.90;;;;;;5000472;28;20049;-83
2023/12/22 04:54:30;;;;;;;10.80;10.07;;;4.40;99.90;;;;;;5000390;28;20140;-86
2023/12/22 04:56:55;;;;;;;11.43;8.75;;;4.50;99.90;;;;;;5016994;28;20128;-86
2023/12/22 04:59:21;;;;;;;17.15;9.23;;;4.60;99.90;;;;;;5017103;28;20409;-84
2023/12/22 05:01:47;;;;;;;11.98;10.35;;;4.80;99.90;;;;;;5016118;28;20041;-83
2023/12/22 05:04:12;;;;;;;11.23;10.60;;;5.20;99.90;;;;;;5016534;28;20156;-85
2023/12/22 05:06:38;;;;;;;10.65;10.05;;;5.00;99.90;;;;;;4983635;28;20049;-85
2023/12/22 05:09:04;;;;;;;8.85;8.13;;;5.20;99.90;;;;;;5016180;28;20397;-85
2023/12/22 05:11:30;;;;;;;10.70;7.65;;;5.00;99.90;;;;;;5016624;28;20053;-85
2023/12/22 05:13:55;;;;;;;7.95;7.07;;;5.00;99.90;;;;;;5015519;28;20136;-84
2023/12/22 05:16:21;;;;;;;10.98;6.78;;;5.00;99.90;;;;;;4999832;28;20077;-87
2023/12/22 05:18:47;;;;;;;10.15;8.77;;;5.60;99.90;;;;;;5016282;28;20359;-85
2023/12/22 05:21:14;;;;;;;9.70;8.27;;;5.00;99.90;;;;;;5016437;28;20128;-87
2023/12/22 05:23:40;;;;;;;9.85;6.20;;;5.90;99.90;;;;;;5000158;28;20053;-84
2023/12/22 05:26:05;;;;;;;13.02;8.32;;;5.70;99.90;;;;;;4999812;28;20551;-84
2023/12/22 05:28:32;;;;;;;7.93;7.10;;;5.70;99.90;;;;;;4982983;28;20478;-85
2023/12/22 05:30:58;;;;;;;8.43;7.63;;;5.20;99.90;;;;;;5032606;28;20405;-85
2023/12/22 05:33:24;;;;;;;12.23;6.43;;;5.20;99.90;;;;;;5015489;28;20052;-83
2023/12/22 05:35:49;;;;;;;7.05;6.43;;;5.30;99.90;;;;;;5032324;28;20181;-84
2023/12/22 05:38:15;;;;;;;10.50;6.28;;;5.40;99.90;;;;;;5015578;28;20114;-84
2023/12/22 05:40:41;;;;;;;10.52;8.68;;;5.40;99.90;;;;;;4999242;28;20107;-84
2023/12/22 05:43:07;;;;;;;8.55;5.20;;;5.50;99.90;;;;;;5032103;28;20059;-83
2023/12/22 05:45:32;;;;;;;7.15;6.18;;;5.50;99.90;;;;;;4999646;28;20486;-82
2023/12/22 05:47:58;;;;;;;8.75;6.95;;;5.60;99.90;;;;;;5014810;28;20053;-82
2023/12/22 05:50:24;;;;;;;10.23;6.97;;;5.60;99.90;;;;;;4998945;28;20042;-85
2023/12/22 05:52:49;;;;;;;8.73;7.07;;;5.60;99.90;;;;;;5032412;28;20045;-84
2023/12/22 05:55:15;;;;;;;7.03;5.43;;;5.60;99.90;;;;;;5015518;28;20033;-84
2023/12/22 05:57:41;;;;;;;13.18;6.15;;;5.90;99.90;;;;;;5015752;28;20038;-83
2023/12/22 06:00:09;;;;;;;8.30;5.47;;;5.80;99.90;;;;;;5031696;28;20037;-83
2023/12/22 06:02:35;;;;;;;6.38;5.25;;;5.60;99.90;;;;;;5030454;28;20494;-84
2023/12/22 06:05:01;;;;;;;6.88;5.05;;;5.60;99.90;;;;;;5015837;28;20052;-84
2023/12/22 06:07:27;;;;;;;12.00;5.32;;;5.80;99.90;;;;;;5015080;28;20045;-84
2023/12/22 06:09:53;;;;;;;8.32;5.60;;;5.60;99.90;;;;;;5015500;28;20049;-84
2023/12/22 06:12:18;;;;;;;11.82;6.20;;;5.60;99.90;;;;;;5031734;28;20116;-85
2023/12/22 06:14:44;;;;;;;11.35;5.45;;;5.60;99.90;;;;;;5014934;28;20045;-84
2023/12/22 06:17:10;;;;;;;9.88;4.70;;;5.70;99.90;;;;;;4999234;28;20474;-83
2023/12/22 06:19:36;;;;;;;8.07;5.28;;;5.60;99.90;;;;;;5014891;28;20041;-84
2023/12/22 06:22:02;;;;;;;5.63;3.78;;;5.70;99.90;;;;;;4998955;28;20114;-83
2023/12/22 06:24:28;;;;;;;10.43;5.05;;;5.60;99.90;;;;;;4982616;28;20116;-84
2023/12/22 06:26:54;;;;;;;10.85;4.07;;;5.60;99.90;;;;;;5015423;28;20053;-84
2023/12/22 06:29:19;;;;;;;7.60;4.30;;;6.20;99.90;;;;;;4998491;28;20041;-85
2023/12/22 06:31:50;;;;;;;7.93;4.45;;;5.70;99.90;;;;;;4997883;28;20049;-83
2023/12/22 06:34:16;;;;;;;6.13;3.63;;;5.60;99.90;;;;;;5031173;28;20124;-85
2023/12/22 06:36:42;;;;;;;6.97;4.18;;;5.80;99.90;;;;;;5014987;28;20042;-84
2023/12/22 06:39:08;;;;;;;4.78;3.78;;;5.70;99.90;;;;;;4982258;28;20073;-84
2023/12/22 06:41:34;;;;;;;7.32;4.65;;;5.70;99.90;;;;;;5015187;28;20080;-85
2023/12/22 06:44:00;;;;;;;7.88;4.25;;;5.70;99.90;;;;;;5015040;28;20054;-83
2023/12/22 06:46:26;;;;;;;7.05;4.55;;;6.30;99.90;;;;;;5014844;28;20520;-86
2023/12/22 06:48:52;;;;;;;8.38;3.72;;;5.70;99.90;;;;;;5031203;28;20139;-84
2023/12/22 06:51:23;;;;;;;10.13;3.75;;;5.70;99.90;;;;;;5031266;28;20050;-84
2023/12/22 06:53:49;;;;;;;8.70;4.68;;;5.70;99.90;;;;;;5031330;28;20045;-83
2023/12/22 06:56:19;;;;;;;8.38;4.25;;;5.80;99.90;;;;;;4998483;28;20041;-84
2023/12/22 06:58:47;;;;;;;4.05;3.63;;;5.70;99.90;;;;;;4998509;28;20413;-84
2023/12/22 07:01:19;;;;;;;9.90;4.57;;;5.80;99.90;;;;;;5015112;28;20468;-85
2023/12/22 07:03:48;;;;;;;14.48;6.20;;;5.80;99.90;;;;;;5014569;28;20049;-85
2023/12/22 07:06:15;;;;;;;7.82;3.65;;;5.90;99.90;;;;;;5031256;28;20103;-84
2023/12/22 07:08:42;;;;;;;7.15;2.97;;;5.90;99.90;;;;;;5014313;28;20046;-85
2023/12/22 07:11:10;;;;;;;6.60;3.20;;;5.70;99.90;;;;;;5014871;28;20045;-84
2023/12/22 07:13:39;;;;;;;7.72;3.70;;;5.70;99.90;;;;;;5014735;28;20056;-84
2023/12/22 07:16:06;;;;;;;5.63;3.65;;;5.70;99.90;;;;;;5014110;28;20085;-84
2023/12/22 07:18:32;;;;;;;7.95;4.45;;;5.70;99.90;;;;;;5014874;28;20048;-84
2023/12/22 07:20:58;;;;;;;6.95;4.32;;;5.70;99.90;;;;;;4980877;28;20053;-84
2023/12/22 07:23:24;;;;;;;8.13;4.05;;;5.70;99.90;;;;;;5014628;28;20052;-83
2023/12/22 07:25:50;;;;;;;8.48;3.60;;;5.70;99.90;;;;;;5014161;28;20402;-84
2023/12/22 07:28:16;;;;;;;4.35;3.53;;;6.20;99.90;;;;;;5031063;28;20509;-85
2023/12/22 07:30:41;;;;;;;6.88;3.72;;;5.80;99.90;;;;;;4981867;28;20485;-84
2023/12/22 07:33:07;;;;;;;6.72;3.60;;;5.80;99.90;;;;;;5013954;28;20449;-85
2023/12/22 07:35:34;;;;;;;11.60;5.30;;;5.70;99.90;;;;;;5014295;28;20073;-84
2023/12/22 07:38:02;;;;;;;6.22;3.45;;;5.90;99.90;;;;;;5014244;28;20049;-84
2023/12/22 07:40:30;;;;;;;6.95;4.10;;;5.80;99.90;;;;;;5030611;28;20057;-85
2023/12/22 07:42:57;;;;;;;7.10;4.00;;;5.80;99.90;;;;;;5030010;28;20056;-83
2023/12/22 07:45:23;;;;;;;10.43;3.53;;;5.80;99.90;;;;;;5030678;28;20041;-83
2023/12/22 07:47:49;;;;;;;5.72;4.38;;;5.70;99.90;;;;;;5016538;28;20049;-83
2023/12/22 07:50:15;;;;;;;6.55;4.68;;;5.70;99.90;;;;;;5001472;28;20505;-83
2023/12/22 07:52:40;;;;;;;5.68;3.45;;;5.70;99.90;;;;;;4984771;28;20049;-85
2023/12/22 07:55:09;;;;;;;10.10;4.60;;;5.70;99.90;;;;;;5000386;28;20060;-83
2023/12/22 07:57:35;;;;;;;5.25;3.25;;;5.80;99.90;;;;;;5001224;28;20045;-83
2023/12/22 08:00:01;;;;;;;7.68;4.00;;;5.70;99.90;;;;;;5001260;28;20041;-83
2023/12/22 08:02:26;;;;;;;6.38;4.35;;;6.40;99.90;;;;;;5017435;28;20037;-83
2023/12/22 08:04:52;;;;;;;3.70;3.40;;;5.70;99.90;;;;;;5001539;28;20437;-82
2023/12/22 08:07:18;;;;;;;5.88;4.10;;;5.70;99.90;;;;;;4984748;28;20052;-84
2023/12/22 08:09:43;;;;;;;7.82;4.10;;;6.20;99.90;;;;;;4984504;28;20064;-84
2023/12/22 08:12:09;;;;;;;7.72;4.60;;;5.80;99.90;;;;;;4984710;28;20140;-84
2023/12/22 08:14:35;;;;;;;7.90;4.38;;;5.80;99.90;;;;;;5017231;28;20119;-83
2023/12/22 08:17:01;;;;;;;10.10;4.60;;;5.80;99.90;;;;;;4997403;28;20088;-84
2023/12/22 08:19:26;;;;;;;6.50;4.47;;;6.10;99.90;;;;;;4997571;28;20041;-89
2023/12/22 08:21:54;;;;;;;12.13;5.28;;;5.70;99.90;;;;;;5031121;28;20080;-87
2023/12/22 08:24:20;;;;;;;9.13;5.10;;;5.90;99.90;;;;;;5014403;28;20045;-84
2023/12/22 08:26:46;;;;;;;7.47;4.53;;;5.80;99.90;;;;;;5032616;28;20061;-85
2023/12/22 08:29:11;;;;;;;7.07;4.30;;;5.80;99.90;;;;;;4999438;28;20051;-84
2023/12/22 08:31:37;;;;;;;10.70;4.78;;;5.90;99.90;;;;;;5031523;28;20042;-86
2023/12/22 08:34:03;;;;;;;7.25;4.90;;;5.90;99.90;;;;;;5015617;28;20048;-85
2023/12/22 08:36:28;;;;;;;8.32;5.00;;;5.90;99.90;;;;;;4983887;28;20462;-84
2023/12/22 08:38:54;;;;;;;9.55;5.90;;;5.90;99.90;;;;;;5015953;28;20054;-87
2023/12/22 08:41:20;;;;;;;16.25;7.28;;;6.20;99.90;;;;;;5031125;28;20053;-87
2023/12/22 08:43:46;;;;;;;12.55;7.20;;;6.00;99.90;;;;;;5015454;28;20053;-84
2023/12/22 08:46:12;;;;;;;8.05;7.22;;;6.00;99.90;;;;;;5016104;28;20045;-86
2023/12/22 08:48:38;;;;;;;9.88;7.78;;;6.00;99.90;;;;;;5015504;28;20075;-84
2023/12/22 08:51:04;;;;;;;8.20;7.45;;;5.90;99.90;;;;;;4983497;28;20128;-85
2023/12/22 08:53:33;;;;;;;12.57;7.30;;;5.80;99.90;;;;;;5032307;28;20057;-85
2023/12/22 08:56:00;;;;;;;7.65;6.93;;;5.90;99.90;;;;;;5014864;28;20088;-84
2023/12/22 08:58:26;;;;;;;7.80;7.03;;;5.90;99.90;;;;;;5015585;28;20136;-86
2023/12/22 09:00:52;;;;;;;8.82;7.75;;;5.80;99.90;;;;;;5015732;28;20061;-83
2023/12/22 09:03:17;;;;;;;8.38;7.68;;;6.10;99.90;;;;;;5031720;28;20470;-87
2023/12/22 09:05:43;;;;;;;6.50;5.03;;;5.60;99.90;;;;;;4996437;28;20045;-84
2023/12/22 09:08:09;;;;;;;10.23;9.73;;;5.60;99.90;;;;;;5013001;28;20116;-87
2023/12/22 09:10:35;;;;;;;7.07;6.43;;;6.60;99.90;;;;;;5014876;28;20037;-88
2023/12/22 09:13:01;;;;;;;6.65;6.18;;;5.70;99.90;;;;;;4998201;28;20172;-88
2023/12/22 09:15:27;;;;;;;6.13;5.72;;;5.70;99.90;;;;;;5014806;28;20136;-87
2023/12/22 09:17:55;;;;;;;5.65;5.25;;;5.90;99.90;;;;;;5013774;28;20053;-87
2023/12/22 09:20:21;;;;;;;5.80;5.30;;;5.80;99.90;;;;;;5000059;28;20159;-87
2023/12/22 09:22:47;;;;;;;5.90;5.40;;;5.90;99.90;;;;;;5030157;28;20557;-89
2023/12/22 09:25:13;;;;;;;4.50;4.20;;;6.10;99.90;;;;;;5017010;28;20128;-86
2023/12/22 09:27:38;;;;;;;5.47;5.05;;;6.10;99.90;;;;;;5012716;28;20501;-90
2023/12/22 09:30:08;;;;;;;4.18;3.88;;;6.20;99.90;;;;;;4996430;28;20482;-87
2023/12/22 09:32:34;;;;;;;4.53;4.10;;;6.30;99.90;;;;;;4997511;28;20034;-84
2023/12/22 09:35:00;;;;;;;4.35;3.90;;;6.30;99.90;;;;;;5015091;28;20049;-87
2023/12/22 09:37:26;;;;;;;4.90;4.57;;;6.30;99.90;;;;;;4990178;28;20041;-88
2023/12/22 09:39:52;;;;;;;5.28;4.88;;;6.20;99.90;;;;;;5011971;28;20061;-86
2023/12/22 09:42:21;;;;;;;6.10;4.88;;;6.20;99.90;;;;;;4995608;28;20056;-87
2023/12/22 09:44:49;;;;;;;4.18;3.83;;;6.20;99.90;;;;;;5009668;28;20049;-86
2023/12/22 09:47:17;;;;;;;4.53;3.90;;;6.50;99.90;;;;;;5014135;28;20049;-86
2023/12/22 09:49:44;;;;;;;4.00;3.70;;;6.20;99.90;;;;;;5015112;28;20045;-87
2023/12/22 09:52:11;;;;;;;3.70;3.40;;;6.20;99.90;;;;;;5031534;28;20063;-85
2023/12/22 09:54:37;;;;;;;4.88;3.63;;;6.60;99.90;;;;;;5015129;28;20053;-85
2023/12/22 09:57:04;;;;;;;3.85;3.55;;;6.20;99.90;;;;;;5015016;28;20052;-87
2023/12/22 09:59:31;;;;;;;3.53;3.20;;;6.20;99.90;;;;;;5014726;28;20078;-86
2023/12/22 10:01:59;;;;;;;12.48;3.67;;;6.20;99.90;;;;;;5014302;28;20104;-86
2023/12/22 10:04:25;;;;;;;3.17;2.88;;;6.20;99.90;;;;;;5031503;28;20056;-89
2023/12/22 10:06:53;;;;;;;5.15;3.67;;;6.30;99.90;;;;;;5014144;28;20398;-86
2023/12/22 10:09:19;;;;;;;4.68;3.50;;;6.20;99.90;;;;;;5028977;28;20054;-86
2023/12/22 10:11:49;;;;;;;3.95;3.10;;;6.20;99.90;;;;;;4998651;28;20436;-87
2023/12/22 10:14:21;;;;;;;3.90;3.50;;;5.30;99.90;;;;;;5026259;28;20050;-85
2023/12/22 10:16:51;;;;;;;2.83;2.50;;;6.20;99.90;;;;;;5030931;28;20124;-84
2023/12/22 10:19:17;;;;;;;3.50;3.15;;;6.30;99.90;;;;;;4996735;28;20049;-84
2023/12/22 10:21:43;;;;;;;4.95;3.38;;;6.30;99.90;;;;;;5030614;28;20382;-85
2023/12/22 10:24:38;;;;;;;3.95;3.22;;;6.40;99.90;;;;;;4997855;28;20397;-84
2023/12/22 10:27:04;;;;;;;4.00;3.70;;;6.30;99.90;;;;;;5003900;28;20096;-83
2023/12/22 10:29:32;;;;;;;3.75;3.35;;;6.50;99.90;;;;;;5014286;28;20042;-84
2023/12/22 10:32:00;;;;;;;7.55;3.22;;;6.30;99.90;;;;;;4981820;28;20045;-84
2023/12/22 10:34:26;;;;;;;6.20;3.55;;;6.30;99.90;;;;;;5030032;28;20049;-85
2023/12/22 10:36:52;;;;;;;5.32;3.67;;;6.30;99.90;;;;;;5030809;28;20049;-84
2023/12/22 10:39:17;;;;;;;4.20;3.80;;;6.30;99.90;;;;;;5014430;28;20045;-86
2023/12/22 10:41:44;;;;;;;5.55;3.70;;;6.30;99.90;;;;;;4981828;28;20060;-84
2023/12/22 10:44:10;;;;;;;5.43;4.75;;;6.60;99.90;;;;;;5014139;28;20092;-86
2023/12/22 10:46:36;;;;;;;5.25;4.03;;;6.30;99.90;;;;;;5013377;28;20073;-81
2023/12/22 10:49:04;;;;;;;5.78;4.88;;;6.30;99.90;;;;;;5013434;28;20033;-83
2023/12/22 10:51:32;;;;;;;5.63;3.70;;;6.30;99.90;;;;;;5029291;28;20572;-83
2023/12/22 10:53:58;;;;;;;4.70;4.25;;;6.30;99.90;;;;;;5006979;28;20077;-82
2023/12/22 10:56:25;;;;;;;4.50;4.13;;;6.30;99.90;;;;;;5011555;28;20060;-85
2023/12/22 10:58:54;;;;;;;5.68;4.03;;;6.30;99.90;;;;;;5009046;28;20050;-86
2023/12/22 11:01:23;;;;;;;5.22;4.38;;;6.30;99.90;;;;;;5010740;28;20498;-85
2023/12/22 11:03:51;;;;;;;13.40;5.07;;;6.40;99.90;;;;;;4993474;28;20057;-86
2023/12/22 11:06:17;;;;;;;8.35;5.13;;;6.30;99.90;;;;;;5006507;28;20096;-85
2023/12/22 11:08:48;;;;;;;10.00;4.88;;;6.40;99.90;;;;;;5022840;28;20042;-85
2023/12/22 11:11:20;;;;;;;4.80;4.47;;;6.70;99.90;;;;;;5002794;28;20395;-83
2023/12/22 11:13:47;;;;;;;8.43;4.75;;;6.20;99.90;;;;;;5020759;28;20096;-84
2023/12/22 11:16:14;;;;;;;7.53;5.25;;;6.20;99.90;;;;;;5005625;28;20375;-83
2023/12/22 11:18:41;;;;;;;6.22;4.70;;;6.20;99.90;;;;;;5042578;28;20046;-85
2023/12/22 11:21:09;;;;;;;10.18;4.97;;;6.20;99.90;;;;;;4994862;28;20049;-83
2023/12/22 11:23:37;;;;;;;5.15;4.63;;;6.60;99.90;;;;;;5029784;28;20056;-85
2023/12/22 11:26:04;;;;;;;9.32;4.35;;;6.20;99.90;;;;;;4998948;28;20438;-81
2023/12/22 11:28:32;;;;;;;6.25;4.43;;;6.20;99.90;;;;;;5015469;28;20128;-83
2023/12/22 11:31:01;;;;;;;6.88;4.40;;;6.30;99.90;;;;;;4998694;28;20136;-82
2023/12/22 11:33:29;;;;;;;8.65;4.47;;;6.30;99.90;;;;;;5014267;28;20068;-83
2023/12/22 11:35:57;;;;;;;5.07;4.65;;;6.40;99.90;;;;;;5016157;28;20139;-84
2023/12/22 11:38:22;;;;;;;5.88;4.15;;;6.30;99.90;;;;;;4998797;28;20048;-83
2023/12/22 11:40:52;;;;;;;7.90;4.68;;;6.70;99.90;;;;;;5015139;28;20049;-83
2023/12/22 11:43:19;;;;;;;7.38;4.43;;;6.40;99.90;;;;;;5015322;28;20052;-83
2023/12/22 11:45:44;;;;;;;4.90;4.38;;;6.40;99.90;;;;;;5030701;28;20053;-83
2023/12/22 11:48:11;;;;;;;7.43;4.45;;;6.40;99.90;;;;;;5031293;28;20038;-85
2023/12/22 11:50:38;;;;;;;3.97;3.60;;;6.40;99.90;;;;;;5015291;28;20175;-81
2023/12/22 11:53:20;;;;;;;4.38;3.97;;;6.50;99.90;;;;;;5030990;28;20114;-83
2023/12/22 11:56:08;;;;;;;5.10;4.30;;;6.50;99.90;;;;;;5014781;28;20383;-83
2023/12/22 11:58:51;;;;;;;6.18;3.63;;;6.50;99.90;;;;;;4998358;28;20103;-81
2023/12/22 12:01:18;;;;;;;10.93;4.15;;;6.50;99.90;;;;;;5029861;28;20083;-83
2023/12/22 12:03:52;;;;;;;5.15;3.95;;;6.50;99.90;;;;;;5014107;28;20076;-84
2023/12/22 12:06:27;;;;;;;6.63;4.53;;;6.60;99.90;;;;;;5014251;28;20110;-81
2023/12/22 12:08:57;;;;;;;7.65;4.07;;;6.60;99.90;;;;;;5031021;28;20103;-83
2023/12/22 12:11:23;;;;;;;11.98;3.88;;;6.60;99.90;;;;;;5029616;28;20057;-82
2023/12/22 12:13:50;;;;;;;5.05;4.60;;;6.60;99.90;;;;;;5031239;28;20136;-83
2023/12/22 12:16:23;;;;;;;5.60;4.07;;;6.60;99.90;;;;;;4995212;28;20052;-82
2023/12/22 12:18:50;;;;;;;4.32;3.92;;;6.60;99.90;;;;;;5014715;28;20046;-84
2023/12/22 12:21:16;;;;;;;3.72;3.53;;;6.60;99.90;;;;;;5014284;28;20053;-86
2023/12/22 12:23:42;;;;;;;15.80;4.72;;;6.60;99.90;;;;;;5030305;28;20048;-86
2023/12/22 12:26:08;;;;;;;6.60;3.92;;;6.70;99.90;;;;;;5031653;28;20046;-84
2023/12/22 12:28:35;;;;;;;4.32;3.92;;;6.70;99.90;;;;;;5014219;28;20050;-82
2023/12/22 12:31:06;;;;;;;4.25;3.90;;;6.70;99.90;;;;;;5014686;28;20124;-82
2023/12/22 12:33:32;;;;;;;4.00;3.25;;;6.80;99.90;;;;;;5013769;28;20048;-84
2023/12/22 12:36:05;;;;;;;4.38;3.97;;;6.70;99.90;;;;;;5013331;28;20118;-84
2023/12/22 12:38:55;;;;;;;5.65;3.53;;;6.70;99.90;;;;;;5030526;28;20336;-83
2023/12/22 12:41:31;;;;;;;5.43;3.75;;;6.70;99.90;;;;;;5028462;28;20057;-86
2023/12/22 12:44:00;;;;;;;;;;;6.70;99.90;;;;;;5031110;28;20045;-84
2023/12/22 12:46:36;;;;;;;4.05;3.75;;;6.70;99.90;;;;;;5029807;28;20007;-84
2023/12/22 12:49:14;;;;;;;8.70;4.30;;;6.70;99.90;;;;;;5030635;28;20107;-83
2023/12/22 12:51:42;;;;;;;4.93;4.22;;;6.70;99.90;;;;;;5012837;28;20048;-86